Decoded Metar for PASD (SAND POINT in AK, USA) (IATA:SDP) | Meteo·Mobile Aviation Weather
aviador You're here:

PASD Decoded Metar

SAND POINT in AK, USA
Report Time2019-02-17 05:56:00
UTC Time2019-02-17 06:03:14
Flight Rules mvfr MVFR
Wind170° at 18 kt
W.Decomp.*RWY 13: 16.3 kt HW 7.6 kt RCW
W.Rank170° ranks 10
Current wind is above 170° avg. (11.1)
Visibility9656 m
Phenomena:Mist
Clouds:Scattered 008 Hf
Broken 015 Hf
Overcast 024 Hf
Expected CloudBase > 400 ft AGL from Temp-Dew spread
Ceiling1,500 ft
Temp05°C (ISA -10)
Dew Point04°C (93% RH)
AAT-2.8°C
QNH1005 hPa
Density Alt-797 ft
Elevation23 ft
Report Wrong Elevation
Raw Report
PASD 170556Z AUTO 17018KT 6SM BR SCT008 BKN015 OVC024 05/04 A2967
RMK AO2 PK WND 18027/0517 RAE55 SLPNO P0000 6////
T00500044=

Extra information for PASD:More info

Metar Taf Metar & Taf Last 4 Metars F.Rules Stats Wind Profile Meteogram Temp Stats Airport Information Weather charts Add Link Nearby VenuesMetar ALERT Operation Metar Decoded Social comments

AIRNAV info for PASD